Time;durP1;ratioP1;P1;durP2;ratioP2;P2;SDS_P1;SDS_P2;PMS_P1;PMS_P2;Temp;Humidity;BMP_temperature;BMP_pressure;BME280_temperature;BME280_humidity;BME280_pressure;Samples;Min_cycle;Max_cycle;Signal;HPM_P1;HPM_P2
2021/10/14 00:00:08;;;;;;;8.87;6.93;;;;;;;;;;5076527;28;20185;-94
2021/10/14 00:02:36;;;;;;;9.23;8.23;;;;;;;;;;5076140;28;20280;-94
2021/10/14 00:05:04;;;;;;;9.87;7.53;;;;;;;;;;5076157;28;20208;-94
2021/10/14 00:07:31;;;;;;;7.83;6.93;;;;;;;;;;5076264;28;20194;-93
2021/10/14 00:09:58;;;;;;;9.33;7.27;;;;;;;;;;5075861;28;20677;-94
2021/10/14 00:12:27;;;;;;;8.20;7.40;;;;;;;;;;5076374;28;20247;-94
2021/10/14 00:14:55;;;;;;;8.13;7.23;;;;;;;;;;5076459;28;20208;-94
2021/10/14 00:17:22;;;;;;;9.00;7.93;;;;;;;;;;5076148;28;20205;-94
2021/10/14 00:19:49;;;;;;;7.47;6.77;;;;;;;;;;5076089;28;20284;-93
2021/10/14 00:22:17;;;;;;;8.10;7.30;;;;;;;;;;5075833;28;20226;-93
2021/10/14 00:24:44;;;;;;;8.37;7.47;;;;;;;;;;5075506;28;20201;-94
2021/10/14 00:27:18;;;;;;;8.00;7.30;;;;;;;;;;5075837;28;20204;-94
2021/10/14 00:29:46;;;;;;;9.40;6.43;;;;;;;;;;5075374;28;20606;-94
2021/10/14 00:32:14;;;;;;;7.70;7.00;;;;;;;;;;5075304;28;20320;-92
2021/10/14 00:34:41;;;;;;;9.73;7.43;;;;;;;;;;5075484;28;20212;-93
2021/10/14 00:37:08;;;;;;;9.47;7.03;;;;;;;;;;5075804;28;20262;-94
2021/10/14 00:39:36;;;;;;;8.57;7.77;;;;;;;;;;5075676;28;20616;-93
2021/10/14 00:42:03;;;;;;;7.77;7.00;;;;;;;;;;5075602;28;20209;-94
2021/10/14 00:44:43;;;;;;;8.47;6.57;;;;;;;;;;5075447;28;20215;-94
2021/10/14 00:47:12;;;;;;;7.70;7.00;;;;;;;;;;5075538;28;20197;-93
2021/10/14 00:49:39;;;;;;;8.17;7.10;;;;;;;;;;5075136;28;20225;-94
2021/10/14 00:52:07;;;;;;;8.13;7.30;;;;;;;;;;5075382;28;20197;-93
2021/10/14 00:54:34;;;;;;;8.57;7.47;;;;;;;;;;5075197;28;20232;-94
2021/10/14 00:57:02;;;;;;;8.73;7.37;;;;;;;;;;5075145;28;20197;-93
2021/10/14 00:59:32;;;;;;;8.23;7.43;;;;;;;;;;5075102;28;20247;-93
2021/10/14 01:01:59;;;;;;;8.40;7.50;;;;;;;;;;5074812;28;20203;-92
2021/10/14 01:04:28;;;;;;;11.67;9.77;;;;;;;;;;5075468;28;20196;-93
2021/10/14 01:06:55;;;;;;;8.67;7.77;;;;;;;;;;5075508;28;20204;-93
2021/10/14 01:09:23;;;;;;;9.43;6.70;;;;;;;;;;5074695;28;20221;-93
2021/10/14 01:11:50;;;;;;;9.80;8.07;;;;;;;;;;5074923;28;20228;-94
2021/10/14 01:14:21;;;;;;;7.87;7.07;;;;;;;;;;5074841;28;20258;-95
2021/10/14 01:16:48;;;;;;;8.67;7.83;;;;;;;;;;5075069;28;20645;-95
2021/10/14 01:19:19;;;;;;;8.37;7.50;;;;;;;;;;5074820;28;20636;-93
2021/10/14 01:21:49;;;;;;;8.50;7.70;;;;;;;;;;5075394;28;20212;-93
2021/10/14 01:24:17;;;;;;;9.03;8.13;;;;;;;;;;5089314;28;20203;-95
2021/10/14 01:26:45;;;;;;;7.80;7.10;;;;;;;;;;5094807;28;20262;-95
2021/10/14 01:29:15;;;;;;;12.33;9.00;;;;;;;;;;5095126;28;20210;-95
2021/10/14 01:31:43;;;;;;;8.70;7.90;;;;;;;;;;5094656;28;20265;-96
2021/10/14 01:34:19;;;;;;;10.00;8.97;;;;;;;;;;5074839;28;20209;-95
2021/10/14 01:36:51;;;;;;;8.07;7.27;;;;;;;;;;5078715;28;20200;-96
2021/10/14 01:39:19;;;;;;;9.57;8.67;;;;;;;;;;5078266;28;20254;-96
2021/10/14 01:41:48;;;;;;;9.20;8.20;;;;;;;;;;5079214;28;20712;-95
2021/10/14 01:44:16;;;;;;;10.03;8.73;;;;;;;;;;5074396;28;20201;-94
2021/10/14 01:46:43;;;;;;;10.27;8.53;;;;;;;;;;5074379;28;20196;-95
2021/10/14 01:49:11;;;;;;;9.27;8.33;;;;;;;;;;5073924;28;20204;-94
2021/10/14 01:51:38;;;;;;;10.70;8.30;;;;;;;;;;5074255;28;20192;-94
2021/10/14 01:54:07;;;;;;;15.63;11.03;;;;;;;;;;5074922;28;20208;-95
2021/10/14 01:56:34;;;;;;;10.27;8.77;;;;;;;;;;5074081;28;20272;-95
2021/10/14 01:59:02;;;;;;;9.67;8.37;;;;;;;;;;5076823;28;20212;-95
2021/10/14 02:01:29;;;;;;;8.87;7.80;;;;;;;;;;5078976;28;20223;-95
2021/10/14 02:03:57;;;;;;;8.47;7.57;;;;;;;;;;5075560;28;20197;-96
2021/10/14 02:06:25;;;;;;;9.33;8.43;;;;;;;;;;5081301;28;20201;-96
2021/10/14 02:08:52;;;;;;;10.13;8.97;;;;;;;;;;5081609;28;20203;-96
2021/10/14 02:11:24;;;;;;;9.07;8.10;;;;;;;;;;5082680;28;20221;-96
2021/10/14 02:13:51;;;;;;;9.07;7.17;;;;;;;;;;5089604;28;20246;-94
2021/10/14 02:16:18;;;;;;;9.33;8.33;;;;;;;;;;5073960;28;20220;-94
2021/10/14 02:18:46;;;;;;;9.20;8.30;;;;;;;;;;5073869;28;20204;-95
2021/10/14 02:21:15;;;;;;;14.00;9.60;;;;;;;;;;5073981;28;20629;-92
2021/10/14 02:23:42;;;;;;;10.33;9.20;;;;;;;;;;5073490;28;20201;-95
2021/10/14 02:26:10;;;;;;;11.17;8.07;;;;;;;;;;5073509;28;20201;-95
2021/10/14 02:28:39;;;;;;;9.23;8.33;;;;;;;;;;5073394;28;20239;-94
2021/10/14 02:31:06;;;;;;;8.80;8.00;;;;;;;;;;5072724;28;20260;-94
2021/10/14 02:33:33;;;;;;;8.87;7.70;;;;;;;;;;5073499;28;20197;-95
2021/10/14 02:36:01;;;;;;;9.83;8.47;;;;;;;;;;5073346;28;20284;-93
2021/10/14 02:38:28;;;;;;;9.10;7.97;;;;;;;;;;5072968;28;20189;-94
2021/10/14 02:40:56;;;;;;;10.10;9.07;;;;;;;;;;5073115;28;20225;-94
2021/10/14 02:43:23;;;;;;;12.27;7.70;;;;;;;;;;5073073;28;20266;-95
2021/10/14 02:45:55;;;;;;;8.67;7.77;;;;;;;;;;5073172;28;20284;-94
2021/10/14 02:48:22;;;;;;;9.50;8.23;;;;;;;;;;5073037;28;20581;-94
2021/10/14 02:50:49;;;;;;;11.83;8.33;;;;;;;;;;5072801;28;20282;-95
2021/10/14 02:53:26;;;;;;;10.53;8.20;;;;;;;;;;5073067;28;20251;-95
2021/10/14 02:55:53;;;;;;;8.13;7.33;;;;;;;;;;5072591;28;20197;-95
2021/10/14 02:58:24;;;;;;;9.67;8.77;;;;;;;;;;5073716;28;20231;-94
2021/10/14 03:01:05;;;;;;;8.60;7.70;;;;;;;;;;5072361;28;20288;-95
2021/10/14 03:03:33;;;;;;;10.83;8.93;;;;;;;;;;5072980;28;20197;-96
2021/10/14 03:06:01;;;;;;;9.17;8.27;;;;;;;;;;5083542;28;20226;-95
2021/10/14 03:08:28;;;;;;;9.93;8.70;;;;;;;;;;5099104;28;20287;-96
2021/10/14 03:10:56;;;;;;;9.47;8.57;;;;;;;;;;5095425;28;20307;-95
2021/10/14 03:13:23;;;;;;;8.33;7.53;;;;;;;;;;5093155;28;20579;-94
2021/10/14 03:15:51;;;;;;;8.67;7.87;;;;;;;;;;5093478;28;20215;-94
2021/10/14 03:18:20;;;;;;;15.43;13.80;;;;;;;;;;5092630;28;20668;-94
2021/10/14 03:20:51;;;;;;;11.40;10.07;;;;;;;;;;5095990;28;20614;-96
2021/10/14 03:23:18;;;;;;;10.47;9.37;;;;;;;;;;5095308;28;20200;-94
2021/10/14 03:25:45;;;;;;;9.40;8.50;;;;;;;;;;5081298;28;20201;-95
2021/10/14 03:28:13;;;;;;;9.53;8.60;;;;;;;;;;5072936;28;20204;-92
2021/10/14 03:30:40;;;;;;;9.00;8.10;;;;;;;;;;5076280;28;20232;-93
2021/10/14 03:33:08;;;;;;;8.00;7.20;;;;;;;;;;5092866;28;20192;-94
2021/10/14 03:35:36;;;;;;;11.50;8.43;;;;;;;;;;5092625;28;20223;-94
2021/10/14 03:38:04;;;;;;;8.30;7.50;;;;;;;;;;5072465;28;20208;-94
2021/10/14 03:40:31;;;;;;;9.67;8.67;;;;;;;;;;5085022;28;20218;-93
2021/10/14 03:42:58;;;;;;;9.80;8.80;;;;;;;;;;5092510;28;20235;-95
2021/10/14 03:45:26;;;;;;;15.23;13.73;;;;;;;;;;5072714;28;20203;-95
2021/10/14 03:47:53;;;;;;;10.80;9.80;;;;;;;;;;5072528;28;20197;-96
2021/10/14 03:50:21;;;;;;;12.17;10.90;;;;;;;;;;5072476;28;20231;-93
2021/10/14 03:52:50;;;;;;;11.20;10.10;;;;;;;;;;5072697;28;20255;-93
2021/10/14 03:55:17;;;;;;;9.93;7.63;;;;;;;;;;5072640;28;20201;-95
2021/10/14 03:57:44;;;;;;;9.53;8.63;;;;;;;;;;5072727;28;20315;-93
2021/10/14 04:00:13;;;;;;;11.97;9.70;;;;;;;;;;5072379;28;20201;-94
2021/10/14 04:02:40;;;;;;;9.50;8.60;;;;;;;;;;5072511;28;20224;-94
2021/10/14 04:05:09;;;;;;;10.50;8.83;;;;;;;;;;5072622;28;20200;-95
2021/10/14 04:07:37;;;;;;;15.07;10.03;;;;;;;;;;5072520;28;20197;-95
2021/10/14 04:10:07;;;;;;;9.27;8.30;;;;;;;;;;5072200;28;20201;-94
2021/10/14 04:12:35;;;;;;;9.10;8.20;;;;;;;;;;5073882;28;20193;-94
2021/10/14 04:15:02;;;;;;;9.40;8.50;;;;;;;;;;5076097;28;20205;-93
2021/10/14 04:17:29;;;;;;;10.83;7.63;;;;;;;;;;5075971;28;20193;-94
2021/10/14 04:19:57;;;;;;;8.57;7.67;;;;;;;;;;5075890;28;20614;-94
2021/10/14 04:22:24;;;;;;;9.57;7.67;;;;;;;;;;5075806;28;20208;-93
2021/10/14 04:24:51;;;;;;;8.57;7.67;;;;;;;;;;5076102;28;20197;-93
2021/10/14 04:27:20;;;;;;;8.87;7.97;;;;;;;;;;5075883;28;20193;-93
2021/10/14 04:29:48;;;;;;;8.60;7.70;;;;;;;;;;5075764;28;20229;-95
2021/10/14 04:32:15;;;;;;;8.77;7.97;;;;;;;;;;5075384;28;20239;-94
2021/10/14 04:34:43;;;;;;;9.00;8.10;;;;;;;;;;5075737;28;20693;-95
2021/10/14 04:37:10;;;;;;;9.07;8.23;;;;;;;;;;5075720;28;20212;-94
2021/10/14 04:39:43;;;;;;;9.27;8.37;;;;;;;;;;5075362;28;20196;-93
2021/10/14 04:42:11;;;;;;;10.53;7.90;;;;;;;;;;5075488;28;20201;-94
2021/10/14 04:44:40;;;;;;;8.77;7.97;;;;;;;;;;5075528;28;20234;-93
2021/10/14 04:47:08;;;;;;;8.53;7.73;;;;;;;;;;5075528;28;20205;-94
2021/10/14 04:49:35;;;;;;;8.00;7.20;;;;;;;;;;5075593;28;20197;-94
2021/10/14 04:52:03;;;;;;;7.47;6.77;;;;;;;;;;5075470;28;20243;-94
2021/10/14 04:54:30;;;;;;;8.17;7.40;;;;;;;;;;5075840;28;20196;-93
2021/10/14 04:56:58;;;;;;;7.30;6.70;;;;;;;;;;5075487;28;20655;-94
2021/10/14 04:59:25;;;;;;;7.80;7.00;;;;;;;;;;5075279;28;20254;-95
2021/10/14 05:01:54;;;;;;;8.13;7.33;;;;;;;;;;5075225;28;20232;-94
2021/10/14 05:04:21;;;;;;;7.93;7.13;;;;;;;;;;5075311;28;20665;-94
2021/10/14 05:06:49;;;;;;;7.80;7.10;;;;;;;;;;5075192;28;20263;-93
2021/10/14 05:09:16;;;;;;;7.90;7.10;;;;;;;;;;5075151;28;20658;-94
2021/10/14 05:11:44;;;;;;;8.40;7.63;;;;;;;;;;5075002;28;20221;-94
2021/10/14 05:14:14;;;;;;;8.93;7.77;;;;;;;;;;5075618;28;20605;-94
2021/10/14 05:16:42;;;;;;;8.17;7.37;;;;;;;;;;5075155;28;20641;-94
2021/10/14 05:19:17;;;;;;;13.60;12.20;;;;;;;;;;5075177;28;20220;-95
2021/10/14 05:21:44;;;;;;;8.70;7.77;;;;;;;;;;5075356;28;20197;-95
2021/10/14 05:24:11;;;;;;;8.90;8.00;;;;;;;;;;5074178;28;20197;-94
2021/10/14 05:26:39;;;;;;;9.17;6.83;;;;;;;;;;5074799;28;20193;-94
2021/10/14 05:29:06;;;;;;;7.90;7.10;;;;;;;;;;5074691;28;20196;-94
2021/10/14 05:31:34;;;;;;;7.00;6.40;;;;;;;;;;5074094;28;20236;-94
2021/10/14 05:34:01;;;;;;;7.77;7.07;;;;;;;;;;5074618;28;20201;-95
2021/10/14 05:36:30;;;;;;;7.60;6.90;;;;;;;;;;5074611;28;20205;-95
2021/10/14 05:39:00;;;;;;;7.07;6.37;;;;;;;;;;5074679;28;20204;-94
2021/10/14 05:41:27;;;;;;;7.67;6.87;;;;;;;;;;5074449;28;20197;-95
2021/10/14 05:43:58;;;;;;;7.13;6.53;;;;;;;;;;5074388;28;20258;-94
2021/10/14 05:46:25;;;;;;;7.17;6.47;;;;;;;;;;5074429;28;20208;-94
2021/10/14 05:48:59;;;;;;;6.33;5.77;;;;;;;;;;5074538;28;20644;-94
2021/10/14 05:51:26;;;;;;;7.97;7.27;;;;;;;;;;5074314;28;20228;-94
2021/10/14 05:53:55;;;;;;;8.00;7.30;;;;;;;;;;5074342;28;20211;-95
2021/10/14 05:56:24;;;;;;;6.87;5.60;;;;;;;;;;5074099;28;20284;-93
2021/10/14 05:58:51;;;;;;;6.00;5.50;;;;;;;;;;5074241;28;20211;-94
2021/10/14 06:01:19;;;;;;;6.80;6.20;;;;;;;;;;5074731;28;20203;-94
2021/10/14 06:03:46;;;;;;;6.80;6.20;;;;;;;;;;5074007;28;20200;-95
2021/10/14 06:06:14;;;;;;;6.97;6.00;;;;;;;;;;5074302;28;20238;-94
2021/10/14 06:08:41;;;;;;;6.97;6.33;;;;;;;;;;5073891;28;20727;-93
2021/10/14 06:11:10;;;;;;;5.97;5.47;;;;;;;;;;5073980;28;20279;-94
2021/10/14 06:13:38;;;;;;;6.10;5.53;;;;;;;;;;5074340;28;20208;-93
2021/10/14 06:16:06;;;;;;;6.00;5.47;;;;;;;;;;5073810;28;20200;-94
2021/10/14 06:18:33;;;;;;;6.07;5.47;;;;;;;;;;5074000;28;20193;-95
2021/10/14 06:21:01;;;;;;;5.40;4.90;;;;;;;;;;5074016;28;20622;-92
2021/10/14 06:23:29;;;;;;;6.07;5.57;;;;;;;;;;5073727;28;20204;-93
2021/10/14 06:25:58;;;;;;;5.70;5.23;;;;;;;;;;5073547;28;20193;-92
2021/10/14 06:28:29;;;;;;;6.00;5.43;;;;;;;;;;5073281;28;20197;-93
2021/10/14 06:30:56;;;;;;;7.03;6.37;;;;;;;;;;5072940;28;20225;-94
2021/10/14 06:33:24;;;;;;;5.47;5.07;;;;;;;;;;5073515;28;20208;-91
2021/10/14 06:35:51;;;;;;;5.10;4.67;;;;;;;;;;5073207;28;20201;-93
2021/10/14 06:38:19;;;;;;;5.33;4.83;;;;;;;;;;5074338;28;20609;-95
2021/10/14 06:40:46;;;;;;;6.37;5.77;;;;;;;;;;5073596;28;20235;-93
2021/10/14 06:43:13;;;;;;;4.90;4.50;;;;;;;;;;5073756;28;20254;-94
2021/10/14 06:45:43;;;;;;;6.23;5.63;;;;;;;;;;5073653;28;20646;-93
2021/10/14 06:48:10;;;;;;;6.33;5.73;;;;;;;;;;5073612;28;20204;-92
2021/10/14 06:50:39;;;;;;;6.70;6.10;;;;;;;;;;5073876;28;20587;-92
2021/10/14 06:53:10;;;;;;;10.07;9.07;;;;;;;;;;5072659;28;20657;-94
2021/10/14 06:55:37;;;;;;;8.20;7.40;;;;;;;;;;5073411;28;20247;-93
2021/10/14 06:58:05;;;;;;;6.07;5.57;;;;;;;;;;5073128;28;20220;-93
2021/10/14 07:00:32;;;;;;;6.47;5.60;;;;;;;;;;5073430;28;20197;-90
2021/10/14 07:03:01;;;;;;;6.47;5.87;;;;;;;;;;5073379;28;20201;-93
2021/10/14 07:05:29;;;;;;;5.10;4.70;;;;;;;;;;5073273;28;20665;-91
2021/10/14 07:07:59;;;;;;;4.97;4.07;;;;;;;;;;5073008;28;20193;-93
2021/10/14 07:10:26;;;;;;;4.37;3.97;;;;;;;;;;5072778;28;20225;-93
2021/10/14 07:12:54;;;;;;;9.67;7.47;;;;;;;;;;5073090;28;20260;-94
2021/10/14 07:15:22;;;;;;;7.33;6.27;;;;;;;;;;5073230;28;20250;-93
2021/10/14 07:17:49;;;;;;;11.07;8.33;;;;;;;;;;5073275;28;20207;-92
2021/10/14 07:20:18;;;;;;;55.80;29.07;;;;;;;;;;5073565;28;20188;-94
2021/10/14 07:22:45;;;;;;;61.33;31.77;;;;;;;;;;5072964;28;20217;-94
2021/10/14 07:25:15;;;;;;;21.07;13.90;;;;;;;;;;5073051;28;20258;-95
2021/10/14 07:27:43;;;;;;;13.20;10.33;;;;;;;;;;5072917;28;20223;-93
2021/10/14 07:30:11;;;;;;;12.57;9.70;;;;;;;;;;5073364;28;20220;-95
2021/10/14 07:32:39;;;;;;;6.63;4.57;;;;;;;;;;5072562;28;20235;-92
2021/10/14 07:35:07;;;;;;;6.27;5.27;;;;;;;;;;5072963;28;20284;-94
2021/10/14 07:37:36;;;;;;;4.57;4.17;;;;;;;;;;5072903;28;20588;-92
2021/10/14 07:40:04;;;;;;;4.80;4.40;;;;;;;;;;5072820;28;20209;-92
2021/10/14 07:42:32;;;;;;;4.43;4.13;;;;;;;;;;5073041;28;20750;-94
2021/10/14 07:44:59;;;;;;;4.73;4.30;;;;;;;;;;5073194;28;20196;-93
2021/10/14 07:47:27;;;;;;;4.90;4.50;;;;;;;;;;5074158;28;20226;-94
2021/10/14 07:49:54;;;;;;;4.37;3.97;;;;;;;;;;5077008;28;20261;-92
2021/10/14 07:52:25;;;;;;;5.20;4.80;;;;;;;;;;5076791;28;20221;-94
2021/10/14 07:54:53;;;;;;;3.90;3.60;;;;;;;;;;5076794;28;20641;-93
2021/10/14 07:57:21;;;;;;;3.93;3.63;;;;;;;;;;5076590;28;20197;-95
2021/10/14 07:59:54;;;;;;;3.77;3.40;;;;;;;;;;5076789;28;20208;-94
2021/10/14 08:02:22;;;;;;;7.43;3.70;;;;;;;;;;5076223;28;20197;-94
2021/10/14 08:04:52;;;;;;;4.73;4.30;;;;;;;;;;5076486;28;20201;-93
2021/10/14 08:07:20;;;;;;;4.30;3.97;;;;;;;;;;5076251;28;20189;-95
2021/10/14 08:09:47;;;;;;;3.60;3.30;;;;;;;;;;5076176;28;20205;-93
2021/10/14 08:12:16;;;;;;;3.10;2.90;;;;;;;;;;5076420;28;20311;-93
2021/10/14 08:14:46;;;;;;;4.97;4.50;;;;;;;;;;5077071;28;20283;-95
2021/10/14 08:17:25;;;;;;;4.00;3.70;;;;;;;;;;5076969;28;20197;-94
2021/10/14 08:19:56;;;;;;;3.87;3.57;;;;;;;;;;5076280;28;20197;-94
2021/10/14 08:22:23;;;;;;;3.80;3.03;;;;;;;;;;5076404;28;20193;-93
2021/10/14 08:24:51;;;;;;;4.20;3.90;;;;;;;;;;5076007;28;20201;-93
2021/10/14 08:27:20;;;;;;;4.60;4.20;;;;;;;;;;5075923;28;20193;-93
2021/10/14 08:29:47;;;;;;;3.23;2.93;;;;;;;;;;5076122;28;20197;-95
2021/10/14 08:32:15;;;;;;;2.77;2.57;;;;;;;;;;5075300;28;20232;-94
2021/10/14 08:34:42;;;;;;;4.47;4.07;;;;;;;;;;5076394;28;20213;-94
2021/10/14 08:37:20;;;;;;;3.10;2.87;;;;;;;;;;5076138;28;20190;-95
2021/10/14 08:39:48;;;;;;;3.00;2.70;;;;;;;;;;5076473;28;20211;-95
2021/10/14 08:42:15;;;;;;;3.30;3.00;;;;;;;;;;5076161;28;20189;-95
2021/10/14 08:44:48;;;;;;;3.17;2.97;;;;;;;;;;5076161;28;20213;-94
2021/10/14 08:47:17;;;;;;;2.93;2.70;;;;;;;;;;5075835;28;20224;-93
2021/10/14 08:49:45;;;;;;;2.27;2.10;;;;;;;;;;5075690;28;20196;-93
2021/10/14 08:52:19;;;;;;;2.63;2.43;;;;;;;;;;5075343;28;20221;-94
2021/10/14 08:54:46;;;;;;;2.93;2.47;;;;;;;;;;5075498;28;20743;-94
2021/10/14 08:57:14;;;;;;;2.63;2.43;;;;;;;;;;5075529;28;20239;-93
2021/10/14 08:59:41;;;;;;;3.73;3.43;;;;;;;;;;5073938;28;20208;-94
2021/10/14 09:02:18;;;;;;;2.60;2.37;;;;;;;;;;5075059;28;20254;-94
2021/10/14 09:04:57;;;;;;;3.37;2.90;;;;;;;;;;5075104;28;20193;-94
2021/10/14 09:07:26;;;;;;;2.70;2.50;;;;;;;;;;5075672;28;20258;-94
2021/10/14 09:09:53;;;;;;;23.93;21.37;;;;;;;;;;5075359;28;20197;-93
2021/10/14 09:12:23;;;;;;;3.43;3.13;;;;;;;;;;5075742;28;20750;-92
2021/10/14 09:14:55;;;;;;;2.47;2.27;;;;;;;;;;5075049;28;20201;-94
2021/10/14 09:17:49;;;;;;;2.10;2.00;;;;;;;;;;5075314;28;20295;-95
2021/10/14 09:20:44;;;;;;;2.67;2.47;;;;;;;;;;5074895;28;20201;-93
2021/10/14 09:23:13;;;;;;;2.10;2.00;;;;;;;;;;5013563;28;20200;-94
2021/10/14 09:25:42;;;;;;;2.33;2.23;;;;;;;;;;5013757;28;20210;-95
2021/10/14 09:28:18;;;;;;;2.33;2.13;;;;;;;;;;5064567;28;20200;-94
2021/10/14 09:30:56;;;;;;;1.73;1.63;;;;;;;;;;5075003;28;20231;-95
2021/10/14 09:33:47;;;;;;;2.20;1.83;;;;;;;;;;5075373;28;20225;-95
2021/10/14 09:36:18;;;;;;;2.00;1.90;;;;;;;;;;5071580;28;20200;-94
2021/10/14 09:38:47;;;;;;;5.17;4.73;;;;;;;;;;5075132;28;20279;-95
2021/10/14 09:41:17;;;;;;;2.43;2.30;;;;;;;;;;5075270;28;20260;-95
2021/10/14 09:43:45;;;;;;;1.80;1.70;;;;;;;;;;5074605;28;20193;-95
2021/10/14 09:46:36;;;;;;;1.57;1.47;;;;;;;;;;5075076;28;20212;-95
2021/10/14 09:49:06;;;;;;;2.27;2.07;;;;;;;;;;5075278;28;20593;-93
2021/10/14 09:51:34;;;;;;;9.90;7.63;;;;;;;;;;5075250;28;20200;-93
2021/10/14 09:54:02;;;;;;;3.07;2.87;;;;;;;;;;5074017;28;20642;-93
2021/10/14 09:56:30;;;;;;;2.03;1.93;;;;;;;;;;5074716;28;20615;-93
2021/10/14 09:58:59;;;;;;;4.67;4.23;;;;;;;;;;5074477;28;20727;-94
2021/10/14 10:01:26;;;;;;;3.83;3.53;;;;;;;;;;5074102;28;20258;-93
2021/10/14 10:03:54;;;;;;;1.33;1.23;;;;;;;;;;5074480;28;20193;-94
2021/10/14 10:06:27;;;;;;;1.67;1.57;;;;;;;;;;5074944;28;20201;-95
2021/10/14 10:08:57;;;;;;;2.53;2.33;;;;;;;;;;5075549;28;20197;-96
2021/10/14 10:11:25;;;;;;;1.67;1.57;;;;;;;;;;5074663;28;20235;-96
2021/10/14 10:13:57;;;;;;;1.70;1.60;;;;;;;;;;5074354;28;20220;-95
2021/10/14 10:16:25;;;;;;;4.00;2.00;;;;;;;;;;5074483;28;20200;-95
2021/10/14 10:18:56;;;;;;;1.70;1.60;;;;;;;;;;5074302;28;20197;-95
2021/10/14 10:21:42;;;;;;;1.37;1.27;;;;;;;;;;5074076;28;20246;-96
2021/10/14 10:24:28;;;;;;;1.83;1.73;;;;;;;;;;5074534;28;20200;-95
2021/10/14 10:26:56;;;;;;;1.63;1.43;;;;;;;;;;5074708;28;20205;-95
2021/10/14 10:29:43;;;;;;;1.40;1.30;;;;;;;;;;5074040;28;20239;-94
2021/10/14 10:32:16;;;;;;;4.17;3.77;;;;;;;;;;5073246;28;20229;-95
2021/10/14 10:34:56;;;;;;;2.90;2.53;;;;;;;;;;5073771;28;20197;-95
2021/10/14 10:37:36;;;;;;;1.70;1.40;;;;;;;;;;5073920;28;20200;-95
2021/10/14 10:40:13;;;;;;;1.27;1.17;;;;;;;;;;5073882;28;20185;-95
2021/10/14 10:42:42;;;;;;;0.80;0.80;;;;;;;;;;5074399;28;20200;-95
2021/10/14 10:45:11;;;;;;;3.93;3.53;;;;;;;;;;5073346;28;20196;-95
2021/10/14 10:47:43;;;;;;;5.20;4.40;;;;;;;;;;5073300;28;20207;-94
2021/10/14 10:50:13;;;;;;;3.97;3.57;;;;;;;;;;5073605;28;20629;-95
2021/10/14 10:52:45;;;;;;;1.40;1.30;;;;;;;;;;5073294;28;20715;-96
2021/10/14 10:55:37;;;;;;;0.93;0.93;;;;;;;;;;5073822;28;20227;-94
2021/10/14 10:58:06;;;;;;;2.30;2.10;;;;;;;;;;5066119;28;20634;-94
2021/10/14 11:00:33;;;;;;;1.40;1.30;;;;;;;;;;5073227;28;20193;-95
2021/10/14 11:03:12;;;;;;;3.10;2.53;;;;;;;;;;5073301;28;20642;-95
2021/10/14 11:05:44;;;;;;;2.47;2.27;;;;;;;;;;5073971;28;20207;-94
2021/10/14 11:08:16;;;;;;;1.80;1.70;;;;;;;;;;5072890;28;20200;-95
2021/10/14 11:10:45;;;;;;;1.60;1.50;;;;;;;;;;5073082;28;20227;-95
2021/10/14 11:13:13;;;;;;;1.27;1.17;;;;;;;;;;5072741;28;20667;-94
2021/10/14 11:15:41;;;;;;;1.40;1.30;;;;;;;;;;5073067;28;20661;-96
2021/10/14 11:18:09;;;;;;;1.70;1.60;;;;;;;;;;5072958;28;20251;-92
2021/10/14 11:20:36;;;;;;;1.97;1.87;;;;;;;;;;5072830;28;20258;-94
2021/10/14 11:23:09;;;;;;;1.50;1.40;;;;;;;;;;5072012;28;20685;-94
2021/10/14 11:25:38;;;;;;;1.60;1.50;;;;;;;;;;5072828;28;20278;-93
2021/10/14 11:28:07;;;;;;;1.70;1.60;;;;;;;;;;5072957;28;20197;-94
2021/10/14 11:30:41;;;;;;;1.90;1.80;;;;;;;;;;5072859;28;20288;-94
2021/10/14 11:33:13;;;;;;;1.23;1.13;;;;;;;;;;5072999;28;20216;-95
2021/10/14 11:35:41;;;;;;;1.53;1.43;;;;;;;;;;5073365;28;20190;-93
2021/10/14 11:38:10;;;;;;;1.97;1.87;;;;;;;;;;5073266;28;20287;-93
2021/10/14 11:40:40;;;;;;;3.50;3.30;;;;;;;;;;5072689;28;20215;-92
2021/10/14 11:43:08;;;;;;;1.90;1.80;;;;;;;;;;5072558;28;20203;-94
2021/10/14 11:45:43;;;;;;;2.47;2.30;;;;;;;;;;5072622;28;20204;-93
2021/10/14 11:48:30;;;;;;;2.30;2.10;;;;;;;;;;5072729;28;20197;-95
2021/10/14 11:51:08;;;;;;;10.30;7.27;;;;;;;;;;5072145;28;20201;-95
2021/10/14 11:53:36;;;;;;;5.07;4.57;;;;;;;;;;5073665;28;20606;-95
2021/10/14 11:56:07;;;;;;;4.43;4.03;;;;;;;;;;5074990;28;20227;-95
2021/10/14 11:58:35;;;;;;;3.60;3.37;;;;;;;;;;5073450;28;20193;-95
2021/10/14 12:01:05;;;;;;;2.60;2.40;;;;;;;;;;5072858;28;20631;-93
2021/10/14 12:03:35;;;;;;;1.93;1.83;;;;;;;;;;5072548;28;20193;-94
2021/10/14 12:06:03;;;;;;;1.77;1.67;;;;;;;;;;5072690;28;20621;-94
2021/10/14 12:08:31;;;;;;;2.63;2.50;;;;;;;;;;5072508;28;20242;-95
2021/10/14 12:11:00;;;;;;;2.83;2.63;;;;;;;;;;5072589;28;20201;-96
2021/10/14 12:13:31;;;;;;;2.70;2.50;;;;;;;;;;5073103;28;20226;-95
2021/10/14 12:16:10;;;;;;;1.10;1.10;;;;;;;;;;5072691;28;20201;-96
2021/10/14 12:18:38;;;;;;;3.50;2.97;;;;;;;;;;5072369;28;20203;-95
2021/10/14 12:21:29;;;;;;;2.53;2.33;;;;;;;;;;5072483;28;20247;-95
2021/10/14 12:24:14;;;;;;;13.03;11.40;;;;;;;;;;5072689;28;20185;-94
2021/10/14 12:26:44;;;;;;;4.40;4.00;;;;;;;;;;5072445;28;20199;-96
2021/10/14 12:29:21;;;;;;;2.27;2.07;;;;;;;;;;5072466;28;20197;-94
2021/10/14 12:31:49;;;;;;;13.47;12.23;;;;;;;;;;5071868;28;20236;-94
2021/10/14 12:34:16;;;;;;;5.83;5.33;;;;;;;;;;5074422;28;20229;-93
2021/10/14 12:36:45;;;;;;;3.80;3.50;;;;;;;;;;5075640;28;20201;-93
2021/10/14 12:39:19;;;;;;;18.00;14.70;;;;;;;;;;5075670;28;20205;-93
2021/10/14 12:41:52;;;;;;;5.77;5.27;;;;;;;;;;5075350;28;20188;-93
2021/10/14 12:44:23;;;;;;;1.93;1.83;;;;;;;;;;5075446;28;20243;-92
2021/10/14 12:46:58;;;;;;;1.57;1.47;;;;;;;;;;5075533;28;20189;-93
2021/10/14 12:49:37;;;;;;;6.60;5.03;;;;;;;;;;5075122;28;20276;-92
2021/10/14 12:52:17;;;;;;;2.13;1.93;;;;;;;;;;5075484;28;20192;-92
2021/10/14 12:54:44;;;;;;;1.80;1.70;;;;;;;;;;5075395;28;20221;-92
2021/10/14 12:57:12;;;;;;;1.90;1.40;;;;;;;;;;5075591;28;20189;-93
2021/10/14 12:59:41;;;;;;;2.27;2.07;;;;;;;;;;5075159;28;20254;-93
2021/10/14 13:02:08;;;;;;;1.77;1.67;;;;;;;;;;5075193;28;20235;-94
2021/10/14 13:04:35;;;;;;;3.07;1.30;;;;;;;;;;5075090;28;20193;-92
2021/10/14 13:07:02;;;;;;;11.90;10.40;;;;;;;;;;5075634;28;20213;-92
2021/10/14 13:09:30;;;;;;;1.70;1.60;;;;;;;;;;5075296;28;20271;-94
2021/10/14 13:11:57;;;;;;;1.63;1.53;;;;;;;;;;5075095;28;20197;-94
2021/10/14 13:14:25;;;;;;;1.83;1.73;;;;;;;;;;5075216;28;20228;-93
2021/10/14 13:16:53;;;;;;;2.00;1.80;;;;;;;;;;5075149;28;20620;-93
2021/10/14 13:19:21;;;;;;;1.60;1.33;;;;;;;;;;5074891;28;20323;-93
2021/10/14 13:21:48;;;;;;;1.43;1.33;;;;;;;;;;5074984;28;20195;-93
2021/10/14 13:24:17;;;;;;;3.43;3.13;;;;;;;;;;5074877;28;20688;-93
2021/10/14 13:26:44;;;;;;;2.50;2.30;;;;;;;;;;5074644;28;20225;-93
2021/10/14 13:29:12;;;;;;;2.63;2.43;;;;;;;;;;5074942;28;20205;-93
2021/10/14 13:31:39;;;;;;;83.97;67.37;;;;;;;;;;5074112;28;20263;-95
2021/10/14 13:34:11;;;;;;;58.80;48.30;;;;;;;;;;5074446;28;20332;-94
2021/10/14 13:36:40;;;;;;;22.53;19.23;;;;;;;;;;5074665;28;20198;-94
2021/10/14 13:39:13;;;;;;;2.87;2.67;;;;;;;;;;5074648;28;20231;-94
2021/10/14 13:41:40;;;;;;;1.53;1.23;;;;;;;;;;5074645;28;20279;-94
2021/10/14 13:44:15;;;;;;;5.67;5.20;;;;;;;;;;5074333;28;20201;-92
2021/10/14 13:46:43;;;;;;;5.23;4.80;;;;;;;;;;5074077;28;20246;-93
2021/10/14 13:49:12;;;;;;;8.20;7.60;;;;;;;;;;5074549;28;20204;-94
2021/10/14 13:51:40;;;;;;;3.07;2.80;;;;;;;;;;5074610;28;20197;-93
2021/10/14 13:54:08;;;;;;;1.30;1.30;;;;;;;;;;5074253;28;20236;-94
2021/10/14 13:56:35;;;;;;;1.30;1.20;;;;;;;;;;5074206;28;20212;-93
2021/10/14 13:59:02;;;;;;;3.20;2.90;;;;;;;;;;5074328;28;20201;-94
2021/10/14 14:01:30;;;;;;;6.60;6.00;;;;;;;;;;5074909;28;20201;-93
2021/10/14 14:03:58;;;;;;;12.83;10.60;;;;;;;;;;5074089;28;20258;-94
2021/10/14 14:06:29;;;;;;;24.50;15.87;;;;;;;;;;5073665;28;20200;-93
2021/10/14 14:08:56;;;;;;;18.67;11.47;;;;;;;;;;5073887;28;20207;-94
2021/10/14 14:11:24;;;;;;;4.17;3.77;;;;;;;;;;5073932;28;20262;-92
2021/10/14 14:13:51;;;;;;;10.57;8.07;;;;;;;;;;5073743;28;20228;-92
2021/10/14 14:17:02;;;;;;;16.60;14.90;;;;;;;;;;5096106;28;20199;-93
2021/10/14 14:19:30;;;;;;;31.93;28.03;;;;;;;;;;5114566;28;20195;-94
2021/10/14 14:21:59;;;;;;;4.13;3.83;;;;;;;;;;5114571;28;20202;-94
2021/10/14 14:24:26;;;;;;;13.83;12.53;;;;;;;;;;5114377;28;20214;-94
2021/10/14 14:26:54;;;;;;;4.77;4.37;;;;;;;;;;5118155;28;20195;-94
2021/10/14 14:29:21;;;;;;;5.47;4.60;;;;;;;;;;5114332;28;20209;-95
2021/10/14 14:31:48;;;;;;;37.87;34.07;;;;;;;;;;5114198;28;20231;-95
2021/10/14 14:34:16;;;;;;;7.87;7.17;;;;;;;;;;5113988;28;20219;-94
2021/10/14 14:36:43;;;;;;;7.67;6.97;;;;;;;;;;5113937;28;20222;-94
2021/10/14 14:39:12;;;;;;;1.40;1.30;;;;;;;;;;5114128;28;20226;-94
2021/10/14 14:41:40;;;;;;;6.33;5.13;;;;;;;;;;5114878;28;20200;-96
2021/10/14 14:44:08;;;;;;;2.13;1.93;;;;;;;;;;5114431;28;20187;-93
2021/10/14 14:46:35;;;;;;;5.27;3.67;;;;;;;;;;5114942;28;20199;-96
2021/10/14 14:49:03;;;;;;;0.90;0.90;;;;;;;;;;5114373;28;20278;-93
2021/10/14 14:51:31;;;;;;;2.23;1.50;;;;;;;;;;5113810;28;20196;-94
2021/10/14 14:53:58;;;;;;;2.07;1.87;;;;;;;;;;5114110;28;20296;-94